sensor_id;sensor_type;location;lat;lon;timestamp;pressure;altitude;pressure_sealevel;temperature;humidity
73952;BME280;62304;47.662;18.324;2023-09-18T00:01:17;100475.22;;;20.76;79.74
73952;BME280;62304;47.662;18.324;2023-09-18T00:04:26;100475.72;;;20.71;79.86
73952;BME280;62304;47.662;18.324;2023-09-18T00:07:30;100475.28;;;20.73;79.88
73952;BME280;62304;47.662;18.324;2023-09-18T00:10:36;100474.13;;;20.70;80.06
73952;BME280;62304;47.662;18.324;2023-09-18T00:13:39;100465.75;;;20.67;80.15
73952;BME280;62304;47.662;18.324;2023-09-18T00:16:43;100462.22;;;20.63;80.33
73952;BME280;62304;47.662;18.324;2023-09-18T00:20:00;100465.53;;;20.58;80.61
73952;BME280;62304;47.662;18.324;2023-09-18T00:23:05;100464.75;;;20.57;80.58
73952;BME280;62304;47.662;18.324;2023-09-18T00:26:09;100467.22;;;20.55;80.69
73952;BME280;62304;47.662;18.324;2023-09-18T00:29:13;100463.38;;;20.46;81.21
73952;BME280;62304;47.662;18.324;2023-09-18T00:32:16;100458.25;;;20.41;81.45
73952;BME280;62304;47.662;18.324;2023-09-18T00:35:20;100452.78;;;20.34;81.74
73952;BME280;62304;47.662;18.324;2023-09-18T00:38:25;100455.13;;;20.35;81.58
73952;BME280;62304;47.662;18.324;2023-09-18T00:41:31;100460.84;;;20.32;81.60
73952;BME280;62304;47.662;18.324;2023-09-18T00:44:34;100458.09;;;20.28;81.83
73952;BME280;62304;47.662;18.324;2023-09-18T00:47:39;100453.41;;;20.22;82.12
73952;BME280;62304;47.662;18.324;2023-09-18T00:50:47;100453.41;;;20.22;82.22
73952;BME280;62304;47.662;18.324;2023-09-18T00:53:52;100459.09;;;20.18;82.32
73952;BME280;62304;47.662;18.324;2023-09-18T00:56:55;100452.03;;;20.11;82.84
73952;BME280;62304;47.662;18.324;2023-09-18T00:59:59;100446.47;;;20.07;82.88
73952;BME280;62304;47.662;18.324;2023-09-18T01:03:02;100445.25;;;20.08;82.85
73952;BME280;62304;47.662;18.324;2023-09-18T01:06:07;100452.94;;;20.04;82.91
73952;BME280;62304;47.662;18.324;2023-09-18T01:09:12;100445.78;;;19.99;83.10
73952;BME280;62304;47.662;18.324;2023-09-18T01:12:30;100451.50;;;19.96;83.31
73952;BME280;62304;47.662;18.324;2023-09-18T01:15:42;100445.84;;;19.96;83.08
73952;BME280;62304;47.662;18.324;2023-09-18T01:18:49;100451.09;;;19.94;83.16
73952;BME280;62304;47.662;18.324;2023-09-18T01:21:53;100448.44;;;19.87;83.56
73952;BME280;62304;47.662;18.324;2023-09-18T01:24:56;100447.59;;;19.90;83.44
73952;BME280;62304;47.662;18.324;2023-09-18T01:28:00;100437.53;;;19.89;83.30
73952;BME280;62304;47.662;18.324;2023-09-18T01:31:03;100442.31;;;19.92;83.19
73952;BME280;62304;47.662;18.324;2023-09-18T01:34:09;100440.34;;;19.89;83.46
73952;BME280;62304;47.662;18.324;2023-09-18T01:37:17;100437.97;;;19.87;83.61
73952;BME280;62304;47.662;18.324;2023-09-18T01:40:23;100442.06;;;19.83;83.86
73952;BME280;62304;47.662;18.324;2023-09-18T01:43:30;100437.59;;;19.85;83.77
73952;BME280;62304;47.662;18.324;2023-09-18T01:46:40;100443.00;;;19.77;84.46
73952;BME280;62304;47.662;18.324;2023-09-18T01:49:46;100447.09;;;19.72;84.71
73952;BME280;62304;47.662;18.324;2023-09-18T01:52:50;100437.06;;;19.71;84.61
73952;BME280;62304;47.662;18.324;2023-09-18T01:55:57;100442.34;;;19.69;85.04
73952;BME280;62304;47.662;18.324;2023-09-18T01:59:01;100433.50;;;19.67;84.93
73952;BME280;62304;47.662;18.324;2023-09-18T02:02:05;100428.34;;;19.66;84.95
73952;BME280;62304;47.662;18.324;2023-09-18T02:05:23;100422.63;;;19.69;84.71
73952;BME280;62304;47.662;18.324;2023-09-18T02:08:27;100434.66;;;19.69;84.74
73952;BME280;62304;47.662;18.324;2023-09-18T02:11:38;100428.62;;;19.71;84.60
73952;BME280;62304;47.662;18.324;2023-09-18T02:14:41;100429.03;;;19.69;84.61
73952;BME280;62304;47.662;18.324;2023-09-18T02:17:46;100429.03;;;19.69;84.66
73952;BME280;62304;47.662;18.324;2023-09-18T02:20:52;100440.28;;;19.69;84.61
73952;BME280;62304;47.662;18.324;2023-09-18T02:23:55;100419.81;;;19.69;84.52
73952;BME280;62304;47.662;18.324;2023-09-18T02:26:58;100426.69;;;19.68;84.71
73952;BME280;62304;47.662;18.324;2023-09-18T02:30:01;100428.25;;;19.69;84.68
73952;BME280;62304;47.662;18.324;2023-09-18T02:33:05;100429.09;;;19.66;84.77
73952;BME280;62304;47.662;18.324;2023-09-18T02:36:10;100430.41;;;19.62;85.11
73952;BME280;62304;47.662;18.324;2023-09-18T02:39:13;100426.00;;;19.61;85.21
73952;BME280;62304;47.662;18.324;2023-09-18T02:42:17;100421.66;;;19.56;85.52
73952;BME280;62304;47.662;18.324;2023-09-18T02:45:20;100428.00;;;19.60;85.25
73952;BME280;62304;47.662;18.324;2023-09-18T02:48:26;100424.47;;;19.56;85.49
73952;BME280;62304;47.662;18.324;2023-09-18T02:51:32;100428.16;;;19.53;85.80
73952;BME280;62304;47.662;18.324;2023-09-18T02:54:36;100425.47;;;19.46;86.10
73952;BME280;62304;47.662;18.324;2023-09-18T02:57:38;100417.88;;;19.43;86.25
73952;BME280;62304;47.662;18.324;2023-09-18T03:00:43;100419.87;;;19.42;86.25
73952;BME280;62304;47.662;18.324;2023-09-18T03:03:46;100410.66;;;19.42;86.27
73952;BME280;62304;47.662;18.324;2023-09-18T03:06:50;100413.47;;;19.42;86.11
73952;BME280;62304;47.662;18.324;2023-09-18T03:09:53;100407.91;;;19.39;86.37
73952;BME280;62304;47.662;18.324;2023-09-18T03:12:57;100409.13;;;19.38;86.27
73952;BME280;62304;47.662;18.324;2023-09-18T03:16:00;100403.94;;;19.36;86.15
73952;BME280;62304;47.662;18.324;2023-09-18T03:19:04;100404.78;;;19.33;86.65
73952;BME280;62304;47.662;18.324;2023-09-18T03:22:11;100401.97;;;19.33;86.57
73952;BME280;62304;47.662;18.324;2023-09-18T03:25:15;100404.84;;;19.30;86.61
73952;BME280;62304;47.662;18.324;2023-09-18T03:28:23;100398.78;;;19.31;86.50
73952;BME280;62304;47.662;18.324;2023-09-18T03:31:26;100401.97;;;19.33;86.44
73952;BME280;62304;47.662;18.324;2023-09-18T03:34:33;100396.75;;;19.32;86.29
73952;BME280;62304;47.662;18.324;2023-09-18T03:37:41;100402.84;;;19.30;86.43
73952;BME280;62304;47.662;18.324;2023-09-18T03:40:50;100395.22;;;19.27;86.53
73952;BME280;62304;47.662;18.324;2023-09-18T03:43:53;100393.28;;;19.24;86.73
73952;BME280;62304;47.662;18.324;2023-09-18T03:46:57;100394.00;;;19.28;86.41
73952;BME280;62304;47.662;18.324;2023-09-18T03:50:04;100388.44;;;19.25;86.57
73952;BME280;62304;47.662;18.324;2023-09-18T03:53:07;100391.31;;;19.21;86.68
73952;BME280;62304;47.662;18.324;2023-09-18T03:56:18;100383.69;;;19.18;86.77
73952;BME280;62304;47.662;18.324;2023-09-18T03:59:23;100388.53;;;19.17;86.67
73952;BME280;62304;47.662;18.324;2023-09-18T04:02:27;100386.63;;;19.11;86.89
73952;BME280;62304;47.662;18.324;2023-09-18T04:05:30;100382.97;;;19.14;86.54
73952;BME280;62304;47.662;18.324;2023-09-18T04:08:33;100367.38;;;19.09;86.61
73952;BME280;62304;47.662;18.324;2023-09-18T04:11:36;100368.25;;;19.07;86.83
73952;BME280;62304;47.662;18.324;2023-09-18T04:14:43;100373.81;;;19.10;86.96
73952;BME280;62304;47.662;18.324;2023-09-18T04:17:47;100368.53;;;19.12;86.30
73952;BME280;62304;47.662;18.324;2023-09-18T04:20:53;100366.66;;;19.06;86.70
73952;BME280;62304;47.662;18.324;2023-09-18T04:23:56;100360.66;;;19.03;86.90
73952;BME280;62304;47.662;18.324;2023-09-18T04:27:03;100359.88;;;19.03;86.63
73952;BME280;62304;47.662;18.324;2023-09-18T04:30:09;100365.56;;;19.00;86.71
73952;BME280;62304;47.662;18.324;2023-09-18T04:33:16;100372.44;;;18.95;86.97
73952;BME280;62304;47.662;18.324;2023-09-18T04:36:21;100366.13;;;18.87;87.46
73952;BME280;62304;47.662;18.324;2023-09-18T04:39:24;100365.84;;;18.82;87.72
73952;BME280;62304;47.662;18.324;2023-09-18T04:42:29;100366.25;;;18.81;87.75
73952;BME280;62304;47.662;18.324;2023-09-18T04:45:33;100367.84;;;18.82;87.82
73952;BME280;62304;47.662;18.324;2023-09-18T04:48:37;100361.91;;;18.76;88.21
73952;BME280;62304;47.662;18.324;2023-09-18T04:51:40;100354.72;;;18.75;87.83
73952;BME280;62304;47.662;18.324;2023-09-18T04:54:45;100363.91;;;18.76;87.96
73952;BME280;62304;47.662;18.324;2023-09-18T04:57:48;100359.09;;;18.76;87.77
73952;BME280;62304;47.662;18.324;2023-09-18T05:00:54;100349.03;;;18.79;87.67
73952;BME280;62304;47.662;18.324;2023-09-18T05:03:57;100348.25;;;19.01;86.96
73952;BME280;62304;47.662;18.324;2023-09-18T05:07:01;100347.84;;;19.26;86.02
73952;BME280;62304;47.662;18.324;2023-09-18T05:10:08;100347.28;;;19.34;85.59
73952;BME280;62304;47.662;18.324;2023-09-18T05:13:11;100349.94;;;19.45;85.15
73952;BME280;62304;47.662;18.324;2023-09-18T05:16:14;100349.31;;;19.34;85.43
73952;BME280;62304;47.662;18.324;2023-09-18T05:19:18;100347.91;;;19.22;86.06
73952;BME280;62304;47.662;18.324;2023-09-18T05:22:21;100353.03;;;19.04;87.41
73952;BME280;62304;47.662;18.324;2023-09-18T05:25:26;100350.41;;;18.94;88.07
73952;BME280;62304;47.662;18.324;2023-09-18T05:28:30;100356.25;;;19.02;87.82
73952;BME280;62304;47.662;18.324;2023-09-18T05:31:34;100360.22;;;19.05;87.64
73952;BME280;62304;47.662;18.324;2023-09-18T05:34:37;100367.44;;;19.06;87.59
73952;BME280;62304;47.662;18.324;2023-09-18T05:37:41;100362.13;;;19.12;87.68
73952;BME280;62304;47.662;18.324;2023-09-18T05:40:44;100361.59;;;19.20;87.39
73952;BME280;62304;47.662;18.324;2023-09-18T05:43:50;100355.72;;;19.34;86.64
73952;BME280;62304;47.662;18.324;2023-09-18T05:46:53;100359.28;;;19.38;86.28
73952;BME280;62304;47.662;18.324;2023-09-18T05:49:56;100353.09;;;19.47;85.83
73952;BME280;62304;47.662;18.324;2023-09-18T05:52:59;100360.88;;;19.39;85.64
73952;BME280;62304;47.662;18.324;2023-09-18T05:56:03;100352.87;;;19.38;85.71
73952;BME280;62304;47.662;18.324;2023-09-18T05:59:07;100352.87;;;19.38;85.59
73952;BME280;62304;47.662;18.324;2023-09-18T06:02:10;100349.19;;;19.41;85.46
73952;BME280;62304;47.662;18.324;2023-09-18T06:05:15;100343.56;;;19.41;85.26
73952;BME280;62304;47.662;18.324;2023-09-18T06:08:18;100337.09;;;19.44;85.11
73952;BME280;62304;47.662;18.324;2023-09-18T06:11:22;100331.75;;;19.49;85.04
73952;BME280;62304;47.662;18.324;2023-09-18T06:14:25;100336.03;;;19.57;84.71
73952;BME280;62304;47.662;18.324;2023-09-18T06:17:29;100327.53;;;19.61;84.48
73952;BME280;62304;47.662;18.324;2023-09-18T06:20:32;100337.81;;;19.67;84.13
73952;BME280;62304;47.662;18.324;2023-09-18T06:23:35;100337.22;;;19.79;83.87
73952;BME280;62304;47.662;18.324;2023-09-18T06:26:38;100339.13;;;19.82;83.51
73952;BME280;62304;47.662;18.324;2023-09-18T06:29:42;100341.87;;;19.85;83.23
73952;BME280;62304;47.662;18.324;2023-09-18T06:32:45;100342.88;;;19.95;82.66
73952;BME280;62304;47.662;18.324;2023-09-18T06:35:52;100342.03;;;19.98;82.57
73952;BME280;62304;47.662;18.324;2023-09-18T06:38:55;100331.94;;;20.20;81.69
73952;BME280;62304;47.662;18.324;2023-09-18T06:41:59;100342.91;;;20.34;80.97
73952;BME280;62304;47.662;18.324;2023-09-18T06:45:02;100339.25;;;20.69;79.19
73952;BME280;62304;47.662;18.324;2023-09-18T06:48:10;100332.88;;;21.16;77.00
73952;BME280;62304;47.662;18.324;2023-09-18T06:51:13;100335.59;;;21.36;76.19
73952;BME280;62304;47.662;18.324;2023-09-18T06:54:18;100328.66;;;21.69;74.89
73952;BME280;62304;47.662;18.324;2023-09-18T06:57:22;100334.38;;;21.65;74.79
73952;BME280;62304;47.662;18.324;2023-09-18T07:00:25;100333.16;;;21.95;73.95
73952;BME280;62304;47.662;18.324;2023-09-18T07:03:29;100324.53;;;22.27;72.22
73952;BME280;62304;47.662;18.324;2023-09-18T07:06:32;100330.19;;;22.39;72.06
73952;BME280;62304;47.662;18.324;2023-09-18T07:09:35;100328.03;;;22.31;72.45
73952;BME280;62304;47.662;18.324;2023-09-18T07:12:57;100334.34;;;22.10;72.42
73952;BME280;62304;47.662;18.324;2023-09-18T07:16:03;100336.19;;;22.29;72.33
73952;BME280;62304;47.662;18.324;2023-09-18T07:19:07;100334.31;;;22.63;71.69
73952;BME280;62304;47.662;18.324;2023-09-18T07:22:14;100320.19;;;22.51;71.48
73952;BME280;62304;47.662;18.324;2023-09-18T07:25:18;100319.34;;;22.25;71.85
73952;BME280;62304;47.662;18.324;2023-09-18T07:28:22;100326.19;;;22.12;72.88
73952;BME280;62304;47.662;18.324;2023-09-18T07:31:25;100311.53;;;22.17;72.65
73952;BME280;62304;47.662;18.324;2023-09-18T07:34:29;100315.72;;;22.37;72.24
73952;BME280;62304;47.662;18.324;2023-09-18T07:37:32;100306.72;;;22.55;71.71
73952;BME280;62304;47.662;18.324;2023-09-18T07:40:35;100293.81;;;22.79;70.81
73952;BME280;62304;47.662;18.324;2023-09-18T07:43:42;100288.59;;;22.77;71.35
73952;BME280;62304;47.662;18.324;2023-09-18T07:46:45;100290.75;;;22.86;71.08
73952;BME280;62304;47.662;18.324;2023-09-18T07:49:48;100285.31;;;22.91;70.77
73952;BME280;62304;47.662;18.324;2023-09-18T07:52:51;100288.56;;;23.02;70.88
73952;BME280;62304;47.662;18.324;2023-09-18T07:55:58;100287.75;;;23.27;70.01
73952;BME280;62304;47.662;18.324;2023-09-18T07:59:02;100284.50;;;23.71;68.26
73952;BME280;62304;47.662;18.324;2023-09-18T08:02:06;100275.88;;;24.18;66.64
73952;BME280;62304;47.662;18.324;2023-09-18T08:05:10;100272.62;;;23.98;66.14
73952;BME280;62304;47.662;18.324;2023-09-18T08:08:12;100284.19;;;24.12;65.29
73952;BME280;62304;47.662;18.324;2023-09-18T08:11:16;100288.78;;;24.89;63.71
73952;BME280;62304;47.662;18.324;2023-09-18T08:14:19;100284.75;;;25.17;60.83
73952;BME280;62304;47.662;18.324;2023-09-18T08:17:22;100281.50;;;25.27;61.60
73952;BME280;62304;47.662;18.324;2023-09-18T08:20:26;100289.91;;;24.91;63.05
73952;BME280;62304;47.662;18.324;2023-09-18T08:23:31;100289.94;;;25.09;62.83
73952;BME280;62304;47.662;18.324;2023-09-18T08:26:34;100295.19;;;25.20;61.29
73952;BME280;62304;47.662;18.324;2023-09-18T08:29:38;100296.97;;;25.80;59.41
73952;BME280;62304;47.662;18.324;2023-09-18T08:32:43;100303.28;;;26.02;58.82
73952;BME280;62304;47.662;18.324;2023-09-18T08:35:46;100315.13;;;26.10;58.19
73952;BME280;62304;47.662;18.324;2023-09-18T08:38:49;100311.78;;;26.71;56.93
73952;BME280;62304;47.662;18.324;2023-09-18T08:41:58;100300.03;;;27.10;55.45
73952;BME280;62304;47.662;18.324;2023-09-18T08:45:01;100298.19;;;27.54;53.59
73952;BME280;62304;47.662;18.324;2023-09-18T08:48:09;100304.06;;;27.27;54.11
73952;BME280;62304;47.662;18.324;2023-09-18T08:51:13;100303.00;;;27.16;53.92
73952;BME280;62304;47.662;18.324;2023-09-18T08:54:18;100307.87;;;27.24;54.11
73952;BME280;62304;47.662;18.324;2023-09-18T08:57:23;100296.16;;;27.69;53.20
73952;BME280;62304;47.662;18.324;2023-09-18T09:00:30;100297.50;;;27.83;52.50
73952;BME280;62304;47.662;18.324;2023-09-18T09:03:36;100294.78;;;28.61;50.71
73952;BME280;62304;47.662;18.324;2023-09-18T09:06:48;100293.19;;;28.45;49.46
73952;BME280;62304;47.662;18.324;2023-09-18T09:09:51;100292.38;;;27.87;51.23
73952;BME280;62304;47.662;18.324;2023-09-18T09:12:58;100290.44;;;28.07;51.17
73952;BME280;62304;47.662;18.324;2023-09-18T09:16:12;100301.19;;;28.56;50.21
73952;BME280;62304;47.662;18.324;2023-09-18T09:19:34;100278.84;;;29.43;47.11
73952;BME280;62304;47.662;18.324;2023-09-18T09:22:42;100279.41;;;29.27;46.75
73952;BME280;62304;47.662;18.324;2023-09-18T09:25:47;100277.69;;;28.46;49.00
73952;BME280;62304;47.662;18.324;2023-09-18T09:28:51;100277.28;;;28.39;48.67
73952;BME280;62304;47.662;18.324;2023-09-18T09:31:54;100283.22;;;28.70;48.18
73952;BME280;62304;47.662;18.324;2023-09-18T09:35:01;100269.28;;;29.26;47.30
73952;BME280;62304;47.662;18.324;2023-09-18T09:38:12;100267.97;;;28.73;47.58
73952;BME280;62304;47.662;18.324;2023-09-18T09:41:20;100263.56;;;29.06;47.52
73952;BME280;62304;47.662;18.324;2023-09-18T09:44:24;100269.06;;;29.30;46.66
73952;BME280;62304;47.662;18.324;2023-09-18T09:47:32;100257.34;;;29.08;47.42
73952;BME280;62304;47.662;18.324;2023-09-18T09:50:44;100256.69;;;29.78;45.42
73952;BME280;62304;47.662;18.324;2023-09-18T09:53:49;100249.22;;;29.61;45.74
73952;BME280;62304;47.662;18.324;2023-09-18T09:56:55;100237.09;;;29.97;44.88
73952;BME280;62304;47.662;18.324;2023-09-18T10:00:04;100235.44;;;30.10;44.64
73952;BME280;62304;47.662;18.324;2023-09-18T10:03:28;100233.59;;;28.04;49.04
73952;BME280;62304;47.662;18.324;2023-09-18T10:06:34;100226.94;;;29.70;45.31
73952;BME280;62304;47.662;18.324;2023-09-18T10:09:41;100230.03;;;29.47;45.79
73952;BME280;62304;47.662;18.324;2023-09-18T10:12:45;100238.34;;;29.05;46.93
73952;BME280;62304;47.662;18.324;2023-09-18T10:15:52;100226.78;;;29.79;45.34
73952;BME280;62304;47.662;18.324;2023-09-18T10:19:09;100229.19;;;29.41;45.94
73952;BME280;62304;47.662;18.324;2023-09-18T10:22:34;100218.41;;;29.10;46.46
73952;BME280;62304;47.662;18.324;2023-09-18T10:25:40;100218.00;;;29.17;46.50
73952;BME280;62304;47.662;18.324;2023-09-18T10:28:45;100222.19;;;29.42;46.23
73952;BME280;62304;47.662;18.324;2023-09-18T10:31:58;100217.50;;;29.59;45.32
73952;BME280;62304;47.662;18.324;2023-09-18T10:35:02;100200.00;;;30.08;44.51
73952;BME280;62304;47.662;18.324;2023-09-18T10:38:06;100194.66;;;29.90;44.42
73952;BME280;62304;47.662;18.324;2023-09-18T10:41:11;100193.63;;;30.18;44.10
73952;BME280;62304;47.662;18.324;2023-09-18T10:44:15;100180.25;;;30.72;42.99
73952;BME280;62304;47.662;18.324;2023-09-18T10:47:21;100195.03;;;30.65;43.12
73952;BME280;62304;47.662;18.324;2023-09-18T10:50:29;100184.88;;;30.27;43.39
73952;BME280;62304;47.662;18.324;2023-09-18T10:53:36;100182.28;;;30.29;43.48
73952;BME280;62304;47.662;18.324;2023-09-18T10:56:39;100186.13;;;30.21;43.43
73952;BME280;62304;47.662;18.324;2023-09-18T10:59:47;100182.69;;;30.53;43.09
73952;BME280;62304;47.662;18.324;2023-09-18T11:03:13;100171.47;;;29.37;45.46
73952;BME280;62304;47.662;18.324;2023-09-18T11:06:17;100187.13;;;29.21;45.76
73952;BME280;62304;47.662;18.324;2023-09-18T11:09:26;100187.00;;;29.30;45.48
73952;BME280;62304;47.662;18.324;2023-09-18T11:12:44;100174.06;;;28.95;46.73
73952;BME280;62304;47.662;18.324;2023-09-18T11:15:49;100169.78;;;29.70;45.45
73952;BME280;62304;47.662;18.324;2023-09-18T11:22:07;100145.47;;;31.01;42.72
73952;BME280;62304;47.662;18.324;2023-09-18T11:25:35;100142.09;;;31.99;41.02
73952;BME280;62304;47.662;18.324;2023-09-18T11:28:41;100132.16;;;30.45;42.62
73952;BME280;62304;47.662;18.324;2023-09-18T11:31:49;100127.59;;;30.64;42.78
73952;BME280;62304;47.662;18.324;2023-09-18T11:35:06;100125.00;;;31.19;41.45
73952;BME280;62304;47.662;18.324;2023-09-18T11:38:11;100122.72;;;30.75;41.08
73952;BME280;62304;47.662;18.324;2023-09-18T11:41:27;100112.47;;;30.63;41.79
73952;BME280;62304;47.662;18.324;2023-09-18T11:44:33;100118.53;;;29.98;44.06
73952;BME280;62304;47.662;18.324;2023-09-18T11:47:41;100121.75;;;30.42;42.61
73952;BME280;62304;47.662;18.324;2023-09-18T11:50:49;100119.84;;;30.70;42.44
73952;BME280;62304;47.662;18.324;2023-09-18T11:53:55;100096.22;;;30.86;42.31
73952;BME280;62304;47.662;18.324;2023-09-18T11:57:03;100104.25;;;30.34;43.21
73952;BME280;62304;47.662;18.324;2023-09-18T12:00:20;100108.34;;;30.22;42.86
73952;BME280;62304;47.662;18.324;2023-09-18T12:03:27;100097.87;;;30.14;43.47
73952;BME280;62304;47.662;18.324;2023-09-18T12:06:41;100093.06;;;30.00;43.84
73952;BME280;62304;47.662;18.324;2023-09-18T12:09:47;100088.50;;;30.13;42.85
73952;BME280;62304;47.662;18.324;2023-09-18T12:12:51;100083.03;;;30.10;42.96
73952;BME280;62304;47.662;18.324;2023-09-18T12:16:04;100076.94;;;30.39;42.77
73952;BME280;62304;47.662;18.324;2023-09-18T12:19:18;100068.03;;;30.73;41.78
73952;BME280;62304;47.662;18.324;2023-09-18T12:22:29;100069.97;;;31.09;40.98
73952;BME280;62304;47.662;18.324;2023-09-18T12:25:32;100067.97;;;31.32;40.72
73952;BME280;62304;47.662;18.324;2023-09-18T12:28:36;100060.97;;;31.71;40.73
73952;BME280;62304;47.662;18.324;2023-09-18T12:31:39;100058.88;;;31.88;40.48
73952;BME280;62304;47.662;18.324;2023-09-18T12:34:43;100057.34;;;31.76;39.22
73952;BME280;62304;47.662;18.324;2023-09-18T12:37:46;100052.88;;;31.48;39.54
73952;BME280;62304;47.662;18.324;2023-09-18T12:40:53;100062.12;;;30.99;41.16
73952;BME280;62304;47.662;18.324;2023-09-18T12:43:58;100057.72;;;31.09;41.13
73952;BME280;62304;47.662;18.324;2023-09-18T12:47:02;100047.41;;;31.77;40.26
73952;BME280;62304;47.662;18.324;2023-09-18T12:50:06;100049.47;;;31.66;38.94
73952;BME280;62304;47.662;18.324;2023-09-18T12:53:12;100047.19;;;30.67;42.37
73952;BME280;62304;47.662;18.324;2023-09-18T12:56:16;100047.28;;;31.00;41.54
73952;BME280;62304;47.662;18.324;2023-09-18T12:59:23;100025.88;;;30.21;42.49
73952;BME280;62304;47.662;18.324;2023-09-18T13:02:27;100018.34;;;30.23;42.41
73952;BME280;62304;47.662;18.324;2023-09-18T13:05:32;100004.69;;;29.40;43.75
73952;BME280;62304;47.662;18.324;2023-09-18T13:08:35;100012.16;;;28.81;45.02
73952;BME280;62304;47.662;18.324;2023-09-18T13:11:56;100009.38;;;28.86;45.33
73952;BME280;62304;47.662;18.324;2023-09-18T13:15:01;100000.22;;;29.02;44.80
73952;BME280;62304;47.662;18.324;2023-09-18T13:18:11;100005.25;;;28.67;45.22
73952;BME280;62304;47.662;18.324;2023-09-18T13:21:19;99989.16;;;28.90;44.94
73952;BME280;62304;47.662;18.324;2023-09-18T13:24:31;99994.28;;;29.06;44.83
73952;BME280;62304;47.662;18.324;2023-09-18T13:27:34;99992.75;;;28.65;45.93
73952;BME280;62304;47.662;18.324;2023-09-18T13:30:42;99984.41;;;28.61;46.18
73952;BME280;62304;47.662;18.324;2023-09-18T13:33:49;99976.16;;;28.89;46.11
73952;BME280;62304;47.662;18.324;2023-09-18T13:36:55;99967.00;;;28.79;46.10
73952;BME280;62304;47.662;18.324;2023-09-18T13:39:58;99965.81;;;28.91;45.99
73952;BME280;62304;47.662;18.324;2023-09-18T13:43:06;99967.81;;;28.60;46.11
73952;BME280;62304;47.662;18.324;2023-09-18T13:46:10;99958.38;;;28.54;46.09
73952;BME280;62304;47.662;18.324;2023-09-18T13:49:13;99956.78;;;28.73;45.44
73952;BME280;62304;47.662;18.324;2023-09-18T13:52:16;99963.91;;;28.83;45.51
73952;BME280;62304;47.662;18.324;2023-09-18T13:55:23;99954.94;;;28.70;45.98
73952;BME280;62304;47.662;18.324;2023-09-18T13:58:29;99955.94;;;28.67;46.79
73952;BME280;62304;47.662;18.324;2023-09-18T14:01:33;99950.81;;;28.71;46.67
73952;BME280;62304;47.662;18.324;2023-09-18T14:04:37;99946.88;;;28.68;46.48
73952;BME280;62304;47.662;18.324;2023-09-18T14:07:40;99942.66;;;28.64;46.31
73952;BME280;62304;47.662;18.324;2023-09-18T14:10:44;99944.03;;;28.68;46.64
73952;BME280;62304;47.662;18.324;2023-09-18T14:13:47;99937.53;;;28.68;46.61
73952;BME280;62304;47.662;18.324;2023-09-18T14:16:51;99941.09;;;28.63;46.91
73952;BME280;62304;47.662;18.324;2023-09-18T14:19:58;99937.38;;;28.77;46.79
73952;BME280;62304;47.662;18.324;2023-09-18T14:23:02;99918.75;;;28.87;46.75
73952;BME280;62304;47.662;18.324;2023-09-18T14:26:06;99919.78;;;28.84;46.18
73952;BME280;62304;47.662;18.324;2023-09-18T14:29:13;99930.13;;;28.81;46.57
73952;BME280;62304;47.662;18.324;2023-09-18T14:32:22;99918.53;;;28.65;46.52
73952;BME280;62304;47.662;18.324;2023-09-18T14:35:27;99921.16;;;28.43;46.74
73952;BME280;62304;47.662;18.324;2023-09-18T14:38:32;99915.59;;;28.34;47.13
73952;BME280;62304;47.662;18.324;2023-09-18T14:41:39;99919.75;;;28.33;47.21
73952;BME280;62304;47.662;18.324;2023-09-18T14:44:47;99903.63;;;28.30;47.38
73952;BME280;62304;47.662;18.324;2023-09-18T14:47:53;99904.56;;;28.01;47.75
73952;BME280;62304;47.662;18.324;2023-09-18T14:50:57;99884.47;;;28.10;47.22
73952;BME280;62304;47.662;18.324;2023-09-18T14:54:04;99887.84;;;27.89;47.18
73952;BME280;62304;47.662;18.324;2023-09-18T14:57:11;99871.59;;;27.95;47.55
73952;BME280;62304;47.662;18.324;2023-09-18T15:00:15;99882.84;;;27.84;47.86
73952;BME280;62304;47.662;18.324;2023-09-18T15:03:19;99871.84;;;27.77;48.39
73952;BME280;62304;47.662;18.324;2023-09-18T15:06:24;99861.44;;;27.74;48.39
73952;BME280;62304;47.662;18.324;2023-09-18T15:09:28;99866.56;;;27.70;48.16
73952;BME280;62304;47.662;18.324;2023-09-18T15:12:33;99846.91;;;27.72;48.15
73952;BME280;62304;47.662;18.324;2023-09-18T15:15:39;99853.50;;;27.78;48.55
73952;BME280;62304;47.662;18.324;2023-09-18T15:18:44;99845.50;;;27.82;48.22
73952;BME280;62304;47.662;18.324;2023-09-18T15:21:51;99846.50;;;27.79;48.50
73952;BME280;62304;47.662;18.324;2023-09-18T15:24:56;99845.62;;;27.73;48.76
73952;BME280;62304;47.662;18.324;2023-09-18T15:28:02;99836.78;;;27.71;48.37
73952;BME280;62304;47.662;18.324;2023-09-18T15:31:10;99840.91;;;27.70;48.32
73952;BME280;62304;47.662;18.324;2023-09-18T15:34:17;99825.22;;;27.60;48.24
73952;BME280;62304;47.662;18.324;2023-09-18T15:37:22;99824.75;;;27.61;48.25
73952;BME280;62304;47.662;18.324;2023-09-18T15:40:29;99826.72;;;27.55;48.36
73952;BME280;62304;47.662;18.324;2023-09-18T15:43:33;99819.91;;;27.47;48.60
73952;BME280;62304;47.662;18.324;2023-09-18T15:46:40;99821.38;;;27.43;48.97
73952;BME280;62304;47.662;18.324;2023-09-18T15:49:43;99819.44;;;27.34;49.27
73952;BME280;62304;47.662;18.324;2023-09-18T15:52:47;99828.22;;;27.31;49.10
73952;BME280;62304;47.662;18.324;2023-09-18T15:55:52;99813.75;;;27.34;48.89
73952;BME280;62304;47.662;18.324;2023-09-18T15:58:57;99803.87;;;27.30;49.15
73952;BME280;62304;47.662;18.324;2023-09-18T16:02:02;99791.34;;;27.22;49.35
73952;BME280;62304;47.662;18.324;2023-09-18T16:05:09;99783.97;;;27.15;49.85